Avataq — CYCX — position and weather

sailwx.info

Track history (hours):
 
Tides and Currents Weather Stations Pressure Air Temp Water Temp Dewpoint Dewpoint Depression Visibility Wind Speed Wind Dir Waves Ship Positions

Avataq

Last reported at 2018-Jun-20 06:39 UTC. Time now 2018-Jun-21 18:17 UTC.
Position N 45°13' W 074°05'.

Length 113 m; draft 5.1 m.

Type: Cargo ship. MMSI: 316013740.

Date/timePositionNaut miles runAvg speedWind from/ knotsBaromVisibWave heightAir tempDewpointWater temp
2018-Jun-20 06:39N 45°13' W 074°05'0 0.0
2018-Jun-20 06:27N 45°13' W 074°05'  
2018-Jun-17 11:18N 45°13' W 074°05'0 0.0
2018-Jun-17 11:00N 45°13' W 074°05'0 0.0
2018-Jun-17 10:30N 45°13' W 074°05'0 0.0
2018-Jun-17 10:00N 45°13' W 074°05'0 0.0
2018-Jun-17 09:30N 45°13' W 074°05'0 0.0
2018-Jun-17 09:00N 45°13' W 074°05'0 0.0
2018-Jun-17 08:30N 45°13' W 074°05'0 0.0
2018-Jun-17 04:06N 45°13' W 074°05'0 0.0
2018-Jun-17 03:54N 45°13' W 074°05'2 0.1
2018-Jun-15 21:25N 45°13' W 074°02'410.0
2018-Jun-15 20:58N 45°16' W 073°57'2 4.6
2018-Jun-15 20:29N 45°18' W 073°56'1 1.8
2018-Jun-15 20:00N 45°19' W 073°55'0 0.0
2018-Jun-15 19:30N 45°19' W 073°55'2 3.1
2018-Jun-15 19:00N 45°20' W 073°54'510.4
2018-Jun-15 18:30N 45°23' W 073°48'5 9.9
2018-Jun-15 18:00N 45°25' W 073°41'3 5.6
2018-Jun-15 17:30N 45°24' W 073°38'3 5.2
2018-Jun-15 17:01N 45°24' W 073°34'0 0.0
2018-Jun-15 16:31N 45°24' W 073°34'1 2.1
2018-Jun-15 16:01N 45°24' W 073°32'2 3.6
2018-Jun-15 15:31N 45°25' W 073°30'2 4.6
2018-Jun-15 15:01N 45°28' W 073°30'2 4.0
2018-Jun-15 14:31N 45°30' W 073°31'0 0.0
2018-Jun-15 14:01N 45°30' W 073°31'1 1.9
2018-Jun-15 13:18N 45°31' W 073°31'  
2018-Jun-11 10:29N 45°34' W 073°31'0 0.0
2018-Jun-11 08:41N 45°34' W 073°31'0 0.0
2018-Jun-11 08:23N 45°34' W 073°31'0 0.0
2018-Jun-11 07:53N 45°34' W 073°31'  
Track history (hours):
 
Tides and Currents Weather Stations Pressure Air Temp Water Temp Dewpoint Dewpoint Depression Visibility Wind Speed Wind Dir Waves Ship Positions

Avataq

Last reported at 2018-Jun-20 06:39 UTC. Time now 2018-Jun-21 18:17 UTC.
Position N 45°13' W 074°05'.

Length 113 m; draft 5.1 m.

Type: Cargo ship. MMSI: 316013740.

Date/timePositionNaut miles runAvg speedWind from/ knotsBaromVisibWave heightAir tempDewpointWater temp
2018-Jun-20 06:39N 45°13' W 074°05'0 0.0
2018-Jun-20 06:27N 45°13' W 074°05'  
2018-Jun-17 11:18N 45°13' W 074°05'0 0.0
2018-Jun-17 11:00N 45°13' W 074°05'0 0.0
2018-Jun-17 10:30N 45°13' W 074°05'0 0.0
2018-Jun-17 10:00N 45°13' W 074°05'0 0.0
2018-Jun-17 09:30N 45°13' W 074°05'0 0.0
2018-Jun-17 09:00N 45°13' W 074°05'0 0.0
2018-Jun-17 08:30N 45°13' W 074°05'0 0.0
2018-Jun-17 04:06N 45°13' W 074°05'0 0.0
2018-Jun-17 03:54N 45°13' W 074°05'2 0.1
2018-Jun-15 21:25N 45°13' W 074°02'410.0
2018-Jun-15 20:58N 45°16' W 073°57'2 4.6
2018-Jun-15 20:29N 45°18' W 073°56'1 1.8
2018-Jun-15 20:00N 45°19' W 073°55'0 0.0
2018-Jun-15 19:30N 45°19' W 073°55'2 3.1
2018-Jun-15 19:00N 45°20' W 073°54'510.4
2018-Jun-15 18:30N 45°23' W 073°48'5 9.9
2018-Jun-15 18:00N 45°25' W 073°41'3 5.6
2018-Jun-15 17:30N 45°24' W 073°38'3 5.2
2018-Jun-15 17:01N 45°24' W 073°34'0 0.0
2018-Jun-15 16:31N 45°24' W 073°34'1 2.1
2018-Jun-15 16:01N 45°24' W 073°32'2 3.6
2018-Jun-15 15:31N 45°25' W 073°30'2 4.6
2018-Jun-15 15:01N 45°28' W 073°30'2 4.0
2018-Jun-15 14:31N 45°30' W 073°31'0 0.0
2018-Jun-15 14:01N 45°30' W 073°31'1 1.9
2018-Jun-15 13:18N 45°31' W 073°31'  
2018-Jun-11 10:29N 45°34' W 073°31'0 0.0
2018-Jun-11 08:41N 45°34' W 073°31'0 0.0
2018-Jun-11 08:23N 45°34' W 073°31'0 0.0
2018-Jun-11 07:53N 45°34' W 073°31'  

Dump ship's entire track history